sensor_id;sensor_type;location;lat;lon;timestamp;P1;durP1;ratioP1;P2;durP2;ratioP2
58091;SDS011;43896;48.178;11.578;2023-05-27T00:01:36;14.70;;;7.28;;
58091;SDS011;43896;48.178;11.578;2023-05-27T00:04:02;10.45;;;7.15;;
58091;SDS011;43896;48.178;11.578;2023-05-27T00:06:27;11.77;;;6.80;;
58091;SDS011;43896;48.178;11.578;2023-05-27T00:08:52;11.13;;;7.13;;
58091;SDS011;43896;48.178;11.578;2023-05-27T00:11:17;10.23;;;6.95;;
58091;SDS011;43896;48.178;11.578;2023-05-27T00:13:43;10.77;;;7.15;;
58091;SDS011;43896;48.178;11.578;2023-05-27T00:16:08;12.45;;;6.63;;
58091;SDS011;43896;48.178;11.578;2023-05-27T00:18:34;11.80;;;7.18;;
58091;SDS011;43896;48.178;11.578;2023-05-27T00:21:00;9.98;;;7.13;;
58091;SDS011;43896;48.178;11.578;2023-05-27T00:23:26;10.55;;;7.00;;
58091;SDS011;43896;48.178;11.578;2023-05-27T00:25:51;10.82;;;7.25;;
58091;SDS011;43896;48.178;11.578;2023-05-27T00:28:16;10.80;;;7.13;;
58091;SDS011;43896;48.178;11.578;2023-05-27T00:30:42;12.65;;;7.22;;
58091;SDS011;43896;48.178;11.578;2023-05-27T00:33:07;10.43;;;7.05;;
58091;SDS011;43896;48.178;11.578;2023-05-27T00:35:32;12.20;;;7.30;;
58091;SDS011;43896;48.178;11.578;2023-05-27T00:37:58;11.52;;;7.53;;
58091;SDS011;43896;48.178;11.578;2023-05-27T00:40:23;12.52;;;7.18;;
58091;SDS011;43896;48.178;11.578;2023-05-27T00:42:51;11.48;;;7.40;;
58091;SDS011;43896;48.178;11.578;2023-05-27T00:45:16;10.57;;;7.40;;
58091;SDS011;43896;48.178;11.578;2023-05-27T00:47:41;10.93;;;7.20;;
58091;SDS011;43896;48.178;11.578;2023-05-27T00:50:07;11.93;;;7.45;;
58091;SDS011;43896;48.178;11.578;2023-05-27T00:52:33;10.73;;;7.10;;
58091;SDS011;43896;48.178;11.578;2023-05-27T00:54:59;11.50;;;7.57;;
58091;SDS011;43896;48.178;11.578;2023-05-27T00:57:24;11.27;;;7.32;;
58091;SDS011;43896;48.178;11.578;2023-05-27T00:59:51;11.73;;;7.65;;
58091;SDS011;43896;48.178;11.578;2023-05-27T01:02:17;10.57;;;7.40;;
58091;SDS011;43896;48.178;11.578;2023-05-27T01:04:42;11.68;;;7.32;;
58091;SDS011;43896;48.178;11.578;2023-05-27T01:07:08;11.63;;;7.50;;
58091;SDS011;43896;48.178;11.578;2023-05-27T01:09:55;11.82;;;7.20;;
58091;SDS011;43896;48.178;11.578;2023-05-27T01:15:13;11.38;;;7.32;;
58091;SDS011;43896;48.178;11.578;2023-05-27T01:17:38;11.38;;;7.78;;
58091;SDS011;43896;48.178;11.578;2023-05-27T01:20:08;11.85;;;7.53;;
58091;SDS011;43896;48.178;11.578;2023-05-27T01:22:35;11.73;;;7.88;;
58091;SDS011;43896;48.178;11.578;2023-05-27T01:25:01;12.13;;;7.30;;
58091;SDS011;43896;48.178;11.578;2023-05-27T01:27:27;11.48;;;7.90;;
58091;SDS011;43896;48.178;11.578;2023-05-27T01:29:53;11.50;;;7.82;;
58091;SDS011;43896;48.178;11.578;2023-05-27T01:32:40;10.20;;;7.55;;
58091;SDS011;43896;48.178;11.578;2023-05-27T01:37:42;12.63;;;7.43;;
58091;SDS011;43896;48.178;11.578;2023-05-27T01:40:09;10.05;;;7.30;;
58091;SDS011;43896;48.178;11.578;2023-05-27T01:42:38;11.18;;;7.45;;
58091;SDS011;43896;48.178;11.578;2023-05-27T01:45:05;12.00;;;8.13;;
58091;SDS011;43896;48.178;11.578;2023-05-27T01:47:32;12.73;;;7.53;;
58091;SDS011;43896;48.178;11.578;2023-05-27T01:49:58;9.32;;;7.40;;
58091;SDS011;43896;48.178;11.578;2023-05-27T01:52:24;10.80;;;7.30;;
58091;SDS011;43896;48.178;11.578;2023-05-27T01:54:49;11.38;;;7.60;;
58091;SDS011;43896;48.178;11.578;2023-05-27T01:57:14;12.85;;;7.97;;
58091;SDS011;43896;48.178;11.578;2023-05-27T01:59:40;10.52;;;7.60;;
58091;SDS011;43896;48.178;11.578;2023-05-27T02:02:06;11.25;;;7.60;;
58091;SDS011;43896;48.178;11.578;2023-05-27T02:04:31;10.82;;;7.47;;
58091;SDS011;43896;48.178;11.578;2023-05-27T02:06:56;9.80;;;7.22;;
58091;SDS011;43896;48.178;11.578;2023-05-27T02:09:22;11.15;;;7.20;;
58091;SDS011;43896;48.178;11.578;2023-05-27T02:11:47;12.60;;;8.18;;
58091;SDS011;43896;48.178;11.578;2023-05-27T02:14:12;11.48;;;7.72;;
58091;SDS011;43896;48.178;11.578;2023-05-27T02:16:38;14.13;;;8.32;;
58091;SDS011;43896;48.178;11.578;2023-05-27T02:19:04;11.70;;;7.75;;
58091;SDS011;43896;48.178;11.578;2023-05-27T02:21:29;12.35;;;7.60;;
58091;SDS011;43896;48.178;11.578;2023-05-27T02:23:55;11.23;;;7.70;;
58091;SDS011;43896;48.178;11.578;2023-05-27T02:26:20;11.45;;;8.18;;
58091;SDS011;43896;48.178;11.578;2023-05-27T02:28:46;11.15;;;7.93;;
58091;SDS011;43896;48.178;11.578;2023-05-27T02:31:12;11.68;;;8.45;;
58091;SDS011;43896;48.178;11.578;2023-05-27T02:33:37;11.30;;;7.82;;
58091;SDS011;43896;48.178;11.578;2023-05-27T02:36:02;11.05;;;7.57;;
58091;SDS011;43896;48.178;11.578;2023-05-27T02:38:28;11.20;;;7.85;;
58091;SDS011;43896;48.178;11.578;2023-05-27T02:40:53;11.85;;;8.60;;
58091;SDS011;43896;48.178;11.578;2023-05-27T02:43:18;11.23;;;8.13;;
58091;SDS011;43896;48.178;11.578;2023-05-27T02:45:43;11.82;;;8.23;;
58091;SDS011;43896;48.178;11.578;2023-05-27T02:48:09;12.15;;;8.45;;
58091;SDS011;43896;48.178;11.578;2023-05-27T02:50:34;10.15;;;7.68;;
58091;SDS011;43896;48.178;11.578;2023-05-27T02:52:59;11.52;;;8.10;;
58091;SDS011;43896;48.178;11.578;2023-05-27T02:55:25;12.70;;;8.40;;
58091;SDS011;43896;48.178;11.578;2023-05-27T02:57:50;13.23;;;8.40;;
58091;SDS011;43896;48.178;11.578;2023-05-27T03:00:15;11.35;;;7.78;;
58091;SDS011;43896;48.178;11.578;2023-05-27T03:02:42;12.40;;;8.02;;
58091;SDS011;43896;48.178;11.578;2023-05-27T03:05:07;11.05;;;8.10;;
58091;SDS011;43896;48.178;11.578;2023-05-27T03:07:33;11.25;;;7.88;;
58091;SDS011;43896;48.178;11.578;2023-05-27T03:09:58;10.82;;;8.23;;
58091;SDS011;43896;48.178;11.578;2023-05-27T03:12:23;11.30;;;8.25;;
58091;SDS011;43896;48.178;11.578;2023-05-27T03:14:49;11.50;;;8.05;;
58091;SDS011;43896;48.178;11.578;2023-05-27T03:17:15;11.68;;;8.07;;
58091;SDS011;43896;48.178;11.578;2023-05-27T03:19:40;11.20;;;7.82;;
58091;SDS011;43896;48.178;11.578;2023-05-27T03:22:08;11.93;;;7.63;;
58091;SDS011;43896;48.178;11.578;2023-05-27T03:24:34;11.10;;;7.68;;
58091;SDS011;43896;48.178;11.578;2023-05-27T03:27:00;12.05;;;7.75;;
58091;SDS011;43896;48.178;11.578;2023-05-27T03:29:26;11.73;;;7.65;;
58091;SDS011;43896;48.178;11.578;2023-05-27T03:31:51;11.13;;;7.43;;
58091;SDS011;43896;48.178;11.578;2023-05-27T03:34:17;11.23;;;8.02;;
58091;SDS011;43896;48.178;11.578;2023-05-27T03:36:42;11.13;;;7.70;;
58091;SDS011;43896;48.178;11.578;2023-05-27T03:39:11;11.37;;;7.57;;
58091;SDS011;43896;48.178;11.578;2023-05-27T03:41:37;11.48;;;7.82;;
58091;SDS011;43896;48.178;11.578;2023-05-27T03:44:02;10.30;;;7.72;;
58091;SDS011;43896;48.178;11.578;2023-05-27T03:46:28;10.45;;;7.65;;
58091;SDS011;43896;48.178;11.578;2023-05-27T03:48:53;11.75;;;7.93;;
58091;SDS011;43896;48.178;11.578;2023-05-27T03:51:19;11.30;;;8.40;;
58091;SDS011;43896;48.178;11.578;2023-05-27T03:53:45;15.18;;;8.52;;
58091;SDS011;43896;48.178;11.578;2023-05-27T03:56:11;12.10;;;8.00;;
58091;SDS011;43896;48.178;11.578;2023-05-27T03:58:36;11.32;;;7.90;;
58091;SDS011;43896;48.178;11.578;2023-05-27T04:01:01;13.38;;;7.72;;
58091;SDS011;43896;48.178;11.578;2023-05-27T04:03:27;12.77;;;8.20;;
58091;SDS011;43896;48.178;11.578;2023-05-27T04:05:53;12.43;;;7.65;;
58091;SDS011;43896;48.178;11.578;2023-05-27T04:08:18;12.52;;;8.18;;
58091;SDS011;43896;48.178;11.578;2023-05-27T04:10:43;12.48;;;7.93;;
58091;SDS011;43896;48.178;11.578;2023-05-27T04:13:09;12.65;;;8.77;;
58091;SDS011;43896;48.178;11.578;2023-05-27T04:15:34;11.63;;;8.00;;
58091;SDS011;43896;48.178;11.578;2023-05-27T04:18:00;10.35;;;7.85;;
58091;SDS011;43896;48.178;11.578;2023-05-27T04:20:33;12.63;;;8.15;;
58091;SDS011;43896;48.178;11.578;2023-05-27T04:23:00;12.52;;;7.90;;
58091;SDS011;43896;48.178;11.578;2023-05-27T04:25:25;11.15;;;7.70;;
58091;SDS011;43896;48.178;11.578;2023-05-27T04:27:51;12.25;;;7.80;;
58091;SDS011;43896;48.178;11.578;2023-05-27T04:30:16;11.93;;;7.88;;
58091;SDS011;43896;48.178;11.578;2023-05-27T04:32:41;12.68;;;7.45;;
58091;SDS011;43896;48.178;11.578;2023-05-27T04:35:07;12.00;;;8.20;;
58091;SDS011;43896;48.178;11.578;2023-05-27T04:37:34;12.00;;;7.63;;
58091;SDS011;43896;48.178;11.578;2023-05-27T04:40:01;10.57;;;7.22;;
58091;SDS011;43896;48.178;11.578;2023-05-27T04:42:31;11.32;;;7.88;;
58091;SDS011;43896;48.178;11.578;2023-05-27T04:44:58;11.80;;;7.97;;
58091;SDS011;43896;48.178;11.578;2023-05-27T04:47:23;10.90;;;7.80;;
58091;SDS011;43896;48.178;11.578;2023-05-27T04:49:48;13.00;;;7.55;;
58091;SDS011;43896;48.178;11.578;2023-05-27T04:52:14;11.68;;;7.32;;
58091;SDS011;43896;48.178;11.578;2023-05-27T04:54:39;13.93;;;7.45;;
58091;SDS011;43896;48.178;11.578;2023-05-27T04:57:05;11.60;;;7.22;;
58091;SDS011;43896;48.178;11.578;2023-05-27T04:59:31;10.55;;;7.00;;
58091;SDS011;43896;48.178;11.578;2023-05-27T05:02:16;10.48;;;7.10;;
58091;SDS011;43896;48.178;11.578;2023-05-27T05:04:50;11.57;;;7.30;;
58091;SDS011;43896;48.178;11.578;2023-05-27T05:07:15;14.23;;;7.65;;
58091;SDS011;43896;48.178;11.578;2023-05-27T05:09:41;13.00;;;7.47;;
58091;SDS011;43896;48.178;11.578;2023-05-27T05:12:07;10.52;;;7.65;;
58091;SDS011;43896;48.178;11.578;2023-05-27T05:14:32;13.50;;;7.38;;
58091;SDS011;43896;48.178;11.578;2023-05-27T05:16:58;10.45;;;7.47;;
58091;SDS011;43896;48.178;11.578;2023-05-27T05:19:23;10.98;;;6.70;;
58091;SDS011;43896;48.178;11.578;2023-05-27T05:21:48;10.55;;;6.28;;
58091;SDS011;43896;48.178;11.578;2023-05-27T05:24:14;12.88;;;7.18;;
58091;SDS011;43896;48.178;11.578;2023-05-27T05:26:39;10.95;;;6.80;;
58091;SDS011;43896;48.178;11.578;2023-05-27T05:29:05;11.00;;;7.20;;
58091;SDS011;43896;48.178;11.578;2023-05-27T05:31:30;13.93;;;7.20;;
58091;SDS011;43896;48.178;11.578;2023-05-27T05:33:56;11.18;;;7.00;;
58091;SDS011;43896;48.178;11.578;2023-05-27T05:36:21;11.70;;;7.45;;
58091;SDS011;43896;48.178;11.578;2023-05-27T05:38:47;12.93;;;7.05;;
58091;SDS011;43896;48.178;11.578;2023-05-27T05:41:13;12.93;;;6.95;;
58091;SDS011;43896;48.178;11.578;2023-05-27T05:43:38;11.82;;;6.95;;
58091;SDS011;43896;48.178;11.578;2023-05-27T05:46:03;12.45;;;6.80;;
58091;SDS011;43896;48.178;11.578;2023-05-27T05:48:30;11.07;;;6.60;;
58091;SDS011;43896;48.178;11.578;2023-05-27T05:50:55;10.98;;;6.90;;
58091;SDS011;43896;48.178;11.578;2023-05-27T05:53:20;12.20;;;7.47;;
58091;SDS011;43896;48.178;11.578;2023-05-27T05:55:45;10.05;;;6.43;;
58091;SDS011;43896;48.178;11.578;2023-05-27T05:58:11;12.13;;;6.90;;
58091;SDS011;43896;48.178;11.578;2023-05-27T06:00:36;11.75;;;6.80;;
58091;SDS011;43896;48.178;11.578;2023-05-27T06:03:02;11.48;;;6.30;;
58091;SDS011;43896;48.178;11.578;2023-05-27T06:05:27;12.27;;;7.10;;
58091;SDS011;43896;48.178;11.578;2023-05-27T06:07:53;11.73;;;6.80;;
58091;SDS011;43896;48.178;11.578;2023-05-27T06:10:18;12.35;;;7.13;;
58091;SDS011;43896;48.178;11.578;2023-05-27T06:12:44;12.20;;;7.00;;
58091;SDS011;43896;48.178;11.578;2023-05-27T06:15:09;12.93;;;6.95;;
58091;SDS011;43896;48.178;11.578;2023-05-27T06:17:35;11.10;;;6.43;;
58091;SDS011;43896;48.178;11.578;2023-05-27T06:20:00;9.65;;;7.00;;
58091;SDS011;43896;48.178;11.578;2023-05-27T06:22:26;12.25;;;6.28;;
58091;SDS011;43896;48.178;11.578;2023-05-27T06:24:51;10.70;;;6.32;;
58091;SDS011;43896;48.178;11.578;2023-05-27T06:27:16;12.65;;;6.32;;
58091;SDS011;43896;48.178;11.578;2023-05-27T06:29:42;11.75;;;6.03;;
58091;SDS011;43896;48.178;11.578;2023-05-27T06:32:09;10.68;;;5.60;;
58091;SDS011;43896;48.178;11.578;2023-05-27T06:34:34;10.38;;;5.95;;
58091;SDS011;43896;48.178;11.578;2023-05-27T06:36:59;10.57;;;5.50;;
58091;SDS011;43896;48.178;11.578;2023-05-27T06:39:25;10.50;;;5.75;;
58091;SDS011;43896;48.178;11.578;2023-05-27T06:41:50;11.45;;;5.15;;
58091;SDS011;43896;48.178;11.578;2023-05-27T06:44:15;10.35;;;5.18;;
58091;SDS011;43896;48.178;11.578;2023-05-27T06:46:41;10.45;;;4.95;;
58091;SDS011;43896;48.178;11.578;2023-05-27T06:49:06;8.73;;;5.25;;
58091;SDS011;43896;48.178;11.578;2023-05-27T06:51:31;10.45;;;5.10;;
58091;SDS011;43896;48.178;11.578;2023-05-27T06:53:57;10.90;;;5.35;;
58091;SDS011;43896;48.178;11.578;2023-05-27T06:56:22;10.63;;;4.90;;
58091;SDS011;43896;48.178;11.578;2023-05-27T06:58:48;9.85;;;4.80;;
58091;SDS011;43896;48.178;11.578;2023-05-27T07:01:13;9.90;;;5.35;;
58091;SDS011;43896;48.178;11.578;2023-05-27T07:03:38;11.40;;;4.93;;
58091;SDS011;43896;48.178;11.578;2023-05-27T07:06:04;11.30;;;4.93;;
58091;SDS011;43896;48.178;11.578;2023-05-27T07:08:30;14.57;;;5.05;;
58091;SDS011;43896;48.178;11.578;2023-05-27T07:10:55;9.73;;;4.68;;
58091;SDS011;43896;48.178;11.578;2023-05-27T07:13:20;11.32;;;4.47;;
58091;SDS011;43896;48.178;11.578;2023-05-27T07:15:46;9.63;;;4.63;;
58091;SDS011;43896;48.178;11.578;2023-05-27T07:18:11;9.48;;;4.38;;
58091;SDS011;43896;48.178;11.578;2023-05-27T07:20:38;9.55;;;4.30;;
58091;SDS011;43896;48.178;11.578;2023-05-27T07:23:04;7.63;;;4.22;;
58091;SDS011;43896;48.178;11.578;2023-05-27T07:25:29;11.18;;;5.00;;
58091;SDS011;43896;48.178;11.578;2023-05-27T07:27:55;10.80;;;4.88;;
58091;SDS011;43896;48.178;11.578;2023-05-27T07:30:20;10.63;;;4.72;;
58091;SDS011;43896;48.178;11.578;2023-05-27T07:32:45;8.93;;;4.55;;
58091;SDS011;43896;48.178;11.578;2023-05-27T07:35:11;11.10;;;4.68;;
58091;SDS011;43896;48.178;11.578;2023-05-27T07:37:36;9.88;;;4.57;;
58091;SDS011;43896;48.178;11.578;2023-05-27T07:40:01;10.80;;;5.00;;
58091;SDS011;43896;48.178;11.578;2023-05-27T07:42:27;11.15;;;4.93;;
58091;SDS011;43896;48.178;11.578;2023-05-27T07:44:53;11.05;;;4.68;;
58091;SDS011;43896;48.178;11.578;2023-05-27T07:47:20;11.90;;;4.82;;
58091;SDS011;43896;48.178;11.578;2023-05-27T07:49:45;9.75;;;4.30;;
58091;SDS011;43896;48.178;11.578;2023-05-27T07:52:10;11.35;;;4.78;;
58091;SDS011;43896;48.178;11.578;2023-05-27T07:54:36;11.88;;;4.95;;
58091;SDS011;43896;48.178;11.578;2023-05-27T07:57:01;9.88;;;4.93;;
58091;SDS011;43896;48.178;11.578;2023-05-27T07:59:27;10.00;;;4.57;;
58091;SDS011;43896;48.178;11.578;2023-05-27T08:01:52;9.27;;;4.78;;
58091;SDS011;43896;48.178;11.578;2023-05-27T08:04:18;10.20;;;4.53;;
58091;SDS011;43896;48.178;11.578;2023-05-27T08:06:43;10.68;;;4.38;;
58091;SDS011;43896;48.178;11.578;2023-05-27T08:09:08;8.75;;;4.50;;
58091;SDS011;43896;48.178;11.578;2023-05-27T08:11:34;9.57;;;4.25;;
58091;SDS011;43896;48.178;11.578;2023-05-27T08:13:59;10.60;;;4.70;;
58091;SDS011;43896;48.178;11.578;2023-05-27T08:16:24;11.73;;;5.32;;
58091;SDS011;43896;48.178;11.578;2023-05-27T08:18:49;13.85;;;5.00;;
58091;SDS011;43896;48.178;11.578;2023-05-27T08:21:15;13.57;;;4.85;;
58091;SDS011;43896;48.178;11.578;2023-05-27T08:23:41;11.18;;;4.78;;
58091;SDS011;43896;48.178;11.578;2023-05-27T08:26:06;10.40;;;4.63;;
58091;SDS011;43896;48.178;11.578;2023-05-27T08:28:32;10.75;;;5.18;;
58091;SDS011;43896;48.178;11.578;2023-05-27T08:31:01;10.82;;;4.60;;
58091;SDS011;43896;48.178;11.578;2023-05-27T08:33:27;9.18;;;4.60;;
58091;SDS011;43896;48.178;11.578;2023-05-27T08:35:53;10.07;;;4.88;;
58091;SDS011;43896;48.178;11.578;2023-05-27T08:38:18;9.32;;;4.70;;
58091;SDS011;43896;48.178;11.578;2023-05-27T08:40:43;9.45;;;4.80;;
58091;SDS011;43896;48.178;11.578;2023-05-27T08:43:09;11.63;;;4.75;;
58091;SDS011;43896;48.178;11.578;2023-05-27T08:45:35;12.50;;;5.10;;
58091;SDS011;43896;48.178;11.578;2023-05-27T08:48:01;12.45;;;5.20;;
58091;SDS011;43896;48.178;11.578;2023-05-27T08:50:26;15.98;;;5.03;;
58091;SDS011;43896;48.178;11.578;2023-05-27T08:52:54;11.25;;;5.28;;
58091;SDS011;43896;48.178;11.578;2023-05-27T08:55:20;11.27;;;5.22;;
58091;SDS011;43896;48.178;11.578;2023-05-27T08:57:51;11.13;;;5.70;;
58091;SDS011;43896;48.178;11.578;2023-05-27T09:00:19;9.70;;;4.80;;
58091;SDS011;43896;48.178;11.578;2023-05-27T09:02:44;8.20;;;4.18;;
58091;SDS011;43896;48.178;11.578;2023-05-27T09:05:10;8.43;;;4.60;;
58091;SDS011;43896;48.178;11.578;2023-05-27T09:07:36;9.75;;;5.30;;
58091;SDS011;43896;48.178;11.578;2023-05-27T09:10:03;13.75;;;5.07;;
58091;SDS011;43896;48.178;11.578;2023-05-27T09:12:30;12.98;;;5.60;;
58091;SDS011;43896;48.178;11.578;2023-05-27T09:14:56;11.73;;;5.40;;
58091;SDS011;43896;48.178;11.578;2023-05-27T09:17:24;9.88;;;4.65;;
58091;SDS011;43896;48.178;11.578;2023-05-27T09:19:53;11.60;;;5.20;;
58091;SDS011;43896;48.178;11.578;2023-05-27T09:22:20;8.82;;;4.40;;
58091;SDS011;43896;48.178;11.578;2023-05-27T09:24:47;11.73;;;5.30;;
58091;SDS011;43896;48.178;11.578;2023-05-27T09:27:13;10.93;;;5.55;;
58091;SDS011;43896;48.178;11.578;2023-05-27T09:29:38;10.80;;;5.30;;
58091;SDS011;43896;48.178;11.578;2023-05-27T09:32:06;9.60;;;4.70;;
58091;SDS011;43896;48.178;11.578;2023-05-27T09:34:46;9.38;;;4.78;;
58091;SDS011;43896;48.178;11.578;2023-05-27T09:37:12;10.50;;;5.50;;
58091;SDS011;43896;48.178;11.578;2023-05-27T09:39:41;10.93;;;5.30;;
58091;SDS011;43896;48.178;11.578;2023-05-27T09:42:06;12.73;;;5.18;;
58091;SDS011;43896;48.178;11.578;2023-05-27T09:44:34;8.57;;;4.55;;
58091;SDS011;43896;48.178;11.578;2023-05-27T09:47:05;10.57;;;5.03;;
58091;SDS011;43896;48.178;11.578;2023-05-27T09:49:33;11.32;;;5.22;;
58091;SDS011;43896;48.178;11.578;2023-05-27T09:52:00;12.32;;;5.05;;
58091;SDS011;43896;48.178;11.578;2023-05-27T09:54:27;10.98;;;5.38;;
58091;SDS011;43896;48.178;11.578;2023-05-27T09:56:53;10.23;;;4.90;;
58091;SDS011;43896;48.178;11.578;2023-05-27T09:59:21;7.93;;;4.55;;
58091;SDS011;43896;48.178;11.578;2023-05-27T10:01:47;10.15;;;4.82;;
58091;SDS011;43896;48.178;11.578;2023-05-27T10:04:14;11.15;;;5.00;;
58091;SDS011;43896;48.178;11.578;2023-05-27T10:06:41;13.27;;;5.25;;
58091;SDS011;43896;48.178;11.578;2023-05-27T10:09:06;9.15;;;5.00;;
58091;SDS011;43896;48.178;11.578;2023-05-27T10:11:32;10.95;;;4.93;;
58091;SDS011;43896;48.178;11.578;2023-05-27T10:14:02;9.45;;;4.88;;
58091;SDS011;43896;48.178;11.578;2023-05-27T10:16:29;10.25;;;5.57;;
58091;SDS011;43896;48.178;11.578;2023-05-27T10:18:55;10.80;;;4.90;;
58091;SDS011;43896;48.178;11.578;2023-05-27T10:21:22;9.73;;;5.07;;
58091;SDS011;43896;48.178;11.578;2023-05-27T10:23:56;9.18;;;4.88;;
58091;SDS011;43896;48.178;11.578;2023-05-27T10:29:34;8.20;;;4.43;;
58091;SDS011;43896;48.178;11.578;2023-05-27T10:32:02;11.25;;;4.43;;
58091;SDS011;43896;48.178;11.578;2023-05-27T10:34:34;10.63;;;4.90;;
58091;SDS011;43896;48.178;11.578;2023-05-27T10:37:01;9.25;;;5.18;;
58091;SDS011;43896;48.178;11.578;2023-05-27T10:39:26;8.02;;;4.68;;
58091;SDS011;43896;48.178;11.578;2023-05-27T10:41:52;9.02;;;4.70;;
58091;SDS011;43896;48.178;11.578;2023-05-27T10:44:33;7.90;;;4.53;;
58091;SDS011;43896;48.178;11.578;2023-05-27T10:47:17;10.70;;;4.68;;
58091;SDS011;43896;48.178;11.578;2023-05-27T10:49:46;8.15;;;4.28;;
58091;SDS011;43896;48.178;11.578;2023-05-27T10:52:12;8.90;;;4.60;;
58091;SDS011;43896;48.178;11.578;2023-05-27T10:54:40;9.88;;;4.60;;
58091;SDS011;43896;48.178;11.578;2023-05-27T10:57:07;9.65;;;4.85;;
58091;SDS011;43896;48.178;11.578;2023-05-27T10:59:40;9.57;;;4.60;;
58091;SDS011;43896;48.178;11.578;2023-05-27T11:02:08;10.23;;;4.78;;
58091;SDS011;43896;48.178;11.578;2023-05-27T11:04:34;9.63;;;4.57;;
58091;SDS011;43896;48.178;11.578;2023-05-27T11:07:03;8.43;;;4.30;;
58091;SDS011;43896;48.178;11.578;2023-05-27T11:09:29;13.13;;;4.45;;
58091;SDS011;43896;48.178;11.578;2023-05-27T11:12:01;10.25;;;5.13;;
58091;SDS011;43896;48.178;11.578;2023-05-27T11:14:30;9.90;;;5.03;;
58091;SDS011;43896;48.178;11.578;2023-05-27T11:16:55;11.73;;;5.30;;
58091;SDS011;43896;48.178;11.578;2023-05-27T11:19:21;8.65;;;4.70;;
58091;SDS011;43896;48.178;11.578;2023-05-27T11:21:46;8.68;;;4.75;;
58091;SDS011;43896;48.178;11.578;2023-05-27T11:24:19;8.32;;;5.05;;
58091;SDS011;43896;48.178;11.578;2023-05-27T11:26:46;10.27;;;4.55;;
58091;SDS011;43896;48.178;11.578;2023-05-27T11:29:15;9.40;;;4.30;;
58091;SDS011;43896;48.178;11.578;2023-05-27T11:31:40;8.15;;;4.43;;
58091;SDS011;43896;48.178;11.578;2023-05-27T11:34:12;12.15;;;4.32;;
58091;SDS011;43896;48.178;11.578;2023-05-27T11:36:39;9.60;;;4.50;;
58091;SDS011;43896;48.178;11.578;2023-05-27T11:39:05;7.25;;;4.18;;
58091;SDS011;43896;48.178;11.578;2023-05-27T11:41:32;8.95;;;4.18;;
58091;SDS011;43896;48.178;11.578;2023-05-27T11:46:43;8.98;;;4.10;;
58091;SDS011;43896;48.178;11.578;2023-05-27T11:49:10;10.88;;;4.30;;
58091;SDS011;43896;48.178;11.578;2023-05-27T11:51:37;9.63;;;4.13;;
58091;SDS011;43896;48.178;11.578;2023-05-27T11:54:07;9.75;;;4.35;;
58091;SDS011;43896;48.178;11.578;2023-05-27T11:56:40;9.25;;;4.28;;
58091;SDS011;43896;48.178;11.578;2023-05-27T11:59:05;7.88;;;4.10;;
58091;SDS011;43896;48.178;11.578;2023-05-27T12:01:30;8.32;;;4.47;;
58091;SDS011;43896;48.178;11.578;2023-05-27T12:03:56;10.10;;;4.15;;
58091;SDS011;43896;48.178;11.578;2023-05-27T12:06:21;7.18;;;3.85;;
58091;SDS011;43896;48.178;11.578;2023-05-27T12:08:46;6.93;;;3.97;;
58091;SDS011;43896;48.178;11.578;2023-05-27T12:11:12;10.25;;;4.13;;
58091;SDS011;43896;48.178;11.578;2023-05-27T12:13:37;8.73;;;3.92;;
58091;SDS011;43896;48.178;11.578;2023-05-27T12:16:02;12.25;;;3.97;;
58091;SDS011;43896;48.178;11.578;2023-05-27T12:18:28;8.15;;;4.15;;
58091;SDS011;43896;48.178;11.578;2023-05-27T12:20:54;8.82;;;4.18;;
58091;SDS011;43896;48.178;11.578;2023-05-27T12:23:20;7.85;;;3.80;;
58091;SDS011;43896;48.178;11.578;2023-05-27T12:25:45;7.75;;;3.60;;
58091;SDS011;43896;48.178;11.578;2023-05-27T12:28:10;8.32;;;3.75;;
58091;SDS011;43896;48.178;11.578;2023-05-27T12:30:36;8.88;;;3.70;;
58091;SDS011;43896;48.178;11.578;2023-05-27T12:33:02;6.90;;;3.47;;
58091;SDS011;43896;48.178;11.578;2023-05-27T12:35:29;7.32;;;3.60;;
58091;SDS011;43896;48.178;11.578;2023-05-27T12:37:54;7.78;;;3.40;;
58091;SDS011;43896;48.178;11.578;2023-05-27T12:40:19;9.25;;;4.10;;
58091;SDS011;43896;48.178;11.578;2023-05-27T12:42:45;8.43;;;3.83;;
58091;SDS011;43896;48.178;11.578;2023-05-27T12:45:10;7.20;;;3.50;;
58091;SDS011;43896;48.178;11.578;2023-05-27T12:47:36;8.43;;;4.00;;
58091;SDS011;43896;48.178;11.578;2023-05-27T12:50:02;7.28;;;3.72;;
58091;SDS011;43896;48.178;11.578;2023-05-27T12:52:28;9.65;;;3.90;;
58091;SDS011;43896;48.178;11.578;2023-05-27T12:54:53;8.45;;;3.88;;
58091;SDS011;43896;48.178;11.578;2023-05-27T12:57:19;7.68;;;3.80;;
58091;SDS011;43896;48.178;11.578;2023-05-27T12:59:44;7.97;;;3.78;;
58091;SDS011;43896;48.178;11.578;2023-05-27T13:02:10;9.15;;;3.90;;
58091;SDS011;43896;48.178;11.578;2023-05-27T13:04:35;8.15;;;3.60;;
58091;SDS011;43896;48.178;11.578;2023-05-27T13:07:00;8.20;;;3.53;;
58091;SDS011;43896;48.178;11.578;2023-05-27T13:09:26;6.15;;;3.38;;
58091;SDS011;43896;48.178;11.578;2023-05-27T13:11:51;7.22;;;3.58;;
58091;SDS011;43896;48.178;11.578;2023-05-27T13:14:16;8.70;;;3.33;;
58091;SDS011;43896;48.178;11.578;2023-05-27T13:16:41;7.47;;;3.65;;
58091;SDS011;43896;48.178;11.578;2023-05-27T13:19:07;8.10;;;4.00;;
58091;SDS011;43896;48.178;11.578;2023-05-27T13:21:32;8.85;;;3.83;;
58091;SDS011;43896;48.178;11.578;2023-05-27T13:23:57;11.70;;;3.92;;
58091;SDS011;43896;48.178;11.578;2023-05-27T13:26:23;8.07;;;3.75;;
58091;SDS011;43896;48.178;11.578;2023-05-27T13:28:48;7.20;;;3.60;;
58091;SDS011;43896;48.178;11.578;2023-05-27T13:31:14;14.40;;;4.07;;
58091;SDS011;43896;48.178;11.578;2023-05-27T13:33:41;7.63;;;3.50;;
58091;SDS011;43896;48.178;11.578;2023-05-27T13:36:07;8.48;;;3.60;;
58091;SDS011;43896;48.178;11.578;2023-05-27T13:38:32;9.68;;;4.00;;
58091;SDS011;43896;48.178;11.578;2023-05-27T13:40:58;10.38;;;3.60;;
58091;SDS011;43896;48.178;11.578;2023-05-27T13:43:24;7.13;;;3.20;;
58091;SDS011;43896;48.178;11.578;2023-05-27T13:45:50;9.02;;;3.95;;
58091;SDS011;43896;48.178;11.578;2023-05-27T13:48:15;9.30;;;3.63;;
58091;SDS011;43896;48.178;11.578;2023-05-27T13:50:41;6.97;;;3.78;;
58091;SDS011;43896;48.178;11.578;2023-05-27T13:53:06;7.65;;;3.40;;
58091;SDS011;43896;48.178;11.578;2023-05-27T13:55:32;8.55;;;3.80;;
58091;SDS011;43896;48.178;11.578;2023-05-27T13:57:57;8.27;;;3.60;;
58091;SDS011;43896;48.178;11.578;2023-05-27T14:00:22;8.75;;;3.50;;
58091;SDS011;43896;48.178;11.578;2023-05-27T14:02:48;7.78;;;3.45;;
58091;SDS011;43896;48.178;11.578;2023-05-27T14:05:13;8.05;;;3.50;;
58091;SDS011;43896;48.178;11.578;2023-05-27T14:07:42;7.53;;;3.90;;
58091;SDS011;43896;48.178;11.578;2023-05-27T14:10:09;6.18;;;3.20;;
58091;SDS011;43896;48.178;11.578;2023-05-27T14:12:34;7.30;;;3.42;;
58091;SDS011;43896;48.178;11.578;2023-05-27T14:15:00;8.82;;;3.30;;
58091;SDS011;43896;48.178;11.578;2023-05-27T14:17:26;8.27;;;3.40;;
58091;SDS011;43896;48.178;11.578;2023-05-27T14:19:51;7.30;;;3.42;;
58091;SDS011;43896;48.178;11.578;2023-05-27T14:22:17;7.65;;;3.22;;
58091;SDS011;43896;48.178;11.578;2023-05-27T14:24:42;8.80;;;3.55;;
58091;SDS011;43896;48.178;11.578;2023-05-27T14:27:07;6.75;;;3.30;;
58091;SDS011;43896;48.178;11.578;2023-05-27T14:29:33;8.27;;;3.28;;
58091;SDS011;43896;48.178;11.578;2023-05-27T14:31:58;9.32;;;3.75;;